sensor_id;sensor_type;location;lat;lon;timestamp;P1;durP1;ratioP1;P2;durP2;ratioP2
65684;SDS011;52405;50.844;-1.062;2022-08-11T00:01:25;7.38;;;1.90;;
65684;SDS011;52405;50.844;-1.062;2022-08-11T00:03:53;5.80;;;2.00;;
65684;SDS011;52405;50.844;-1.062;2022-08-11T00:06:28;4.47;;;2.08;;
65684;SDS011;52405;50.844;-1.062;2022-08-11T00:08:56;3.42;;;1.73;;
65684;SDS011;52405;50.844;-1.062;2022-08-11T00:11:45;2.80;;;1.50;;
65684;SDS011;52405;50.844;-1.062;2022-08-11T00:16:56;5.30;;;1.60;;
65684;SDS011;52405;50.844;-1.062;2022-08-11T00:19:23;3.53;;;1.50;;
65684;SDS011;52405;50.844;-1.062;2022-08-11T00:21:50;3.22;;;2.08;;
65684;SDS011;52405;50.844;-1.062;2022-08-11T00:24:18;3.30;;;1.50;;
65684;SDS011;52405;50.844;-1.062;2022-08-11T00:26:49;4.97;;;1.65;;
65684;SDS011;52405;50.844;-1.062;2022-08-11T00:29:16;6.07;;;2.08;;
65684;SDS011;52405;50.844;-1.062;2022-08-11T00:32:02;4.20;;;2.03;;
65684;SDS011;52405;50.844;-1.062;2022-08-11T00:34:33;3.95;;;1.80;;
65684;SDS011;52405;50.844;-1.062;2022-08-11T00:37:03;4.38;;;2.08;;
65684;SDS011;52405;50.844;-1.062;2022-08-11T00:39:41;3.75;;;1.67;;
65684;SDS011;52405;50.844;-1.062;2022-08-11T00:42:15;3.53;;;1.77;;
65684;SDS011;52405;50.844;-1.062;2022-08-11T00:45:03;8.93;;;2.35;;
65684;SDS011;52405;50.844;-1.062;2022-08-11T00:53:45;3.90;;;1.88;;
65684;SDS011;52405;50.844;-1.062;2022-08-11T01:05:44;4.63;;;1.88;;
65684;SDS011;52405;50.844;-1.062;2022-08-11T01:10:44;7.88;;;2.80;;
65684;SDS011;52405;50.844;-1.062;2022-08-11T01:13:14;8.65;;;2.63;;
65684;SDS011;52405;50.844;-1.062;2022-08-11T01:19:06;9.20;;;2.85;;
65684;SDS011;52405;50.844;-1.062;2022-08-11T01:27:12;7.68;;;3.28;;
65684;SDS011;52405;50.844;-1.062;2022-08-11T01:33:24;7.10;;;2.60;;
65684;SDS011;52405;50.844;-1.062;2022-08-11T01:36:42;4.18;;;2.15;;
65684;SDS011;52405;50.844;-1.062;2022-08-11T01:45:20;4.95;;;2.72;;
65684;SDS011;52405;50.844;-1.062;2022-08-11T01:48:07;3.42;;;2.05;;
65684;SDS011;52405;50.844;-1.062;2022-08-11T02:04:46;3.78;;;2.35;;
65684;SDS011;52405;50.844;-1.062;2022-08-11T02:10:24;6.97;;;2.65;;
65684;SDS011;52405;50.844;-1.062;2022-08-11T02:13:23;5.07;;;2.65;;
65684;SDS011;52405;50.844;-1.062;2022-08-11T02:19:07;5.65;;;2.83;;
65684;SDS011;52405;50.844;-1.062;2022-08-11T02:22:15;6.07;;;2.35;;
65684;SDS011;52405;50.844;-1.062;2022-08-11T02:25:49;8.07;;;2.60;;
65684;SDS011;52405;50.844;-1.062;2022-08-11T02:30:45;7.80;;;2.22;;
65684;SDS011;52405;50.844;-1.062;2022-08-11T02:33:38;4.80;;;2.33;;
65684;SDS011;52405;50.844;-1.062;2022-08-11T02:36:11;10.77;;;2.35;;
65684;SDS011;52405;50.844;-1.062;2022-08-11T02:38:48;5.53;;;2.95;;
65684;SDS011;52405;50.844;-1.062;2022-08-11T02:50:18;8.20;;;2.40;;
65684;SDS011;52405;50.844;-1.062;2022-08-11T03:01:01;5.53;;;3.05;;
65684;SDS011;52405;50.844;-1.062;2022-08-11T03:03:33;3.03;;;2.33;;
65684;SDS011;52405;50.844;-1.062;2022-08-11T03:06:11;8.32;;;2.28;;
65684;SDS011;52405;50.844;-1.062;2022-08-11T03:08:46;2.13;;;1.92;;
65684;SDS011;52405;50.844;-1.062;2022-08-11T03:14:24;4.72;;;2.58;;
65684;SDS011;52405;50.844;-1.062;2022-08-11T03:17:29;5.05;;;2.88;;
65684;SDS011;52405;50.844;-1.062;2022-08-11T03:31:03;6.85;;;3.40;;
65684;SDS011;52405;50.844;-1.062;2022-08-11T03:33:47;4.63;;;2.53;;
65684;SDS011;52405;50.844;-1.062;2022-08-11T04:32:03;5.93;;;2.83;;
65684;SDS011;52405;50.844;-1.062;2022-08-11T04:40:38;4.55;;;2.58;;
65684;SDS011;52405;50.844;-1.062;2022-08-11T04:55:25;4.47;;;2.83;;
65684;SDS011;52405;50.844;-1.062;2022-08-11T05:13:21;7.47;;;3.53;;
65684;SDS011;52405;50.844;-1.062;2022-08-11T05:16:10;7.60;;;3.92;;
65684;SDS011;52405;50.844;-1.062;2022-08-11T05:18:55;4.75;;;3.47;;
65684;SDS011;52405;50.844;-1.062;2022-08-11T05:21:42;7.53;;;3.97;;
65684;SDS011;52405;50.844;-1.062;2022-08-11T05:24:40;7.20;;;3.03;;
65684;SDS011;52405;50.844;-1.062;2022-08-11T05:27:31;7.93;;;3.45;;
65684;SDS011;52405;50.844;-1.062;2022-08-11T05:30:24;7.57;;;3.55;;
65684;SDS011;52405;50.844;-1.062;2022-08-11T05:33:13;7.75;;;3.30;;
65684;SDS011;52405;50.844;-1.062;2022-08-11T05:38:53;4.63;;;3.17;;
65684;SDS011;52405;50.844;-1.062;2022-08-11T05:41:41;8.40;;;3.95;;
65684;SDS011;52405;50.844;-1.062;2022-08-11T05:44:26;7.13;;;3.70;;
65684;SDS011;52405;50.844;-1.062;2022-08-11T05:47:23;7.80;;;3.08;;
65684;SDS011;52405;50.844;-1.062;2022-08-11T05:50:08;10.63;;;4.15;;
65684;SDS011;52405;50.844;-1.062;2022-08-11T05:52:55;7.70;;;3.47;;
65684;SDS011;52405;50.844;-1.062;2022-08-11T05:55:43;7.05;;;3.90;;
65684;SDS011;52405;50.844;-1.062;2022-08-11T05:58:32;6.90;;;3.42;;
65684;SDS011;52405;50.844;-1.062;2022-08-11T06:01:00;7.22;;;3.58;;
65684;SDS011;52405;50.844;-1.062;2022-08-11T06:03:27;7.43;;;3.78;;
65684;SDS011;52405;50.844;-1.062;2022-08-11T06:05:54;8.07;;;3.42;;
65684;SDS011;52405;50.844;-1.062;2022-08-11T06:08:29;7.15;;;4.05;;
65684;SDS011;52405;50.844;-1.062;2022-08-11T06:11:00;8.55;;;3.60;;
65684;SDS011;52405;50.844;-1.062;2022-08-11T06:13:29;5.38;;;3.45;;
65684;SDS011;52405;50.844;-1.062;2022-08-11T06:15:55;6.30;;;3.78;;
65684;SDS011;52405;50.844;-1.062;2022-08-11T06:18:22;5.85;;;3.25;;
65684;SDS011;52405;50.844;-1.062;2022-08-11T06:20:55;9.63;;;3.65;;
65684;SDS011;52405;50.844;-1.062;2022-08-11T06:23:24;5.05;;;3.28;;
65684;SDS011;52405;50.844;-1.062;2022-08-11T06:25:56;7.18;;;3.38;;
65684;SDS011;52405;50.844;-1.062;2022-08-11T06:28:34;6.82;;;3.17;;
65684;SDS011;52405;50.844;-1.062;2022-08-11T06:31:16;4.63;;;2.90;;
65684;SDS011;52405;50.844;-1.062;2022-08-11T06:36:26;5.10;;;2.87;;
65684;SDS011;52405;50.844;-1.062;2022-08-11T06:41:49;6.75;;;2.90;;
65684;SDS011;52405;50.844;-1.062;2022-08-11T06:44:23;6.70;;;2.95;;
65684;SDS011;52405;50.844;-1.062;2022-08-11T06:46:59;4.82;;;2.80;;
65684;SDS011;52405;50.844;-1.062;2022-08-11T06:52:18;4.53;;;2.25;;
65684;SDS011;52405;50.844;-1.062;2022-08-11T06:54:49;7.00;;;2.42;;
65684;SDS011;52405;50.844;-1.062;2022-08-11T06:57:21;3.90;;;1.98;;
65684;SDS011;52405;50.844;-1.062;2022-08-11T07:00:05;7.72;;;2.53;;
65684;SDS011;52405;50.844;-1.062;2022-08-11T07:02:51;5.00;;;2.47;;
65684;SDS011;52405;50.844;-1.062;2022-08-11T07:05:22;3.38;;;2.10;;
65684;SDS011;52405;50.844;-1.062;2022-08-11T07:13:57;7.43;;;2.15;;
65684;SDS011;52405;50.844;-1.062;2022-08-11T07:16:43;2.90;;;2.00;;
65684;SDS011;52405;50.844;-1.062;2022-08-11T07:19:12;3.97;;;2.10;;
65684;SDS011;52405;50.844;-1.062;2022-08-11T07:22:00;2.65;;;1.90;;
65684;SDS011;52405;50.844;-1.062;2022-08-11T07:25:10;8.70;;;2.17;;
65684;SDS011;52405;50.844;-1.062;2022-08-11T07:28:17;5.20;;;2.55;;
65684;SDS011;52405;50.844;-1.062;2022-08-11T07:31:06;7.75;;;2.45;;
65684;SDS011;52405;50.844;-1.062;2022-08-11T07:33:40;3.47;;;1.85;;
65684;SDS011;52405;50.844;-1.062;2022-08-11T07:36:14;3.47;;;1.98;;
65684;SDS011;52405;50.844;-1.062;2022-08-11T07:38:46;6.10;;;1.70;;
65684;SDS011;52405;50.844;-1.062;2022-08-11T07:41:19;5.72;;;1.48;;
65684;SDS011;52405;50.844;-1.062;2022-08-11T07:43:48;8.50;;;2.30;;
65684;SDS011;52405;50.844;-1.062;2022-08-11T07:46:17;6.57;;;2.10;;
65684;SDS011;52405;50.844;-1.062;2022-08-11T07:49:02;6.13;;;2.33;;
65684;SDS011;52405;50.844;-1.062;2022-08-11T07:51:48;7.63;;;1.50;;
65684;SDS011;52405;50.844;-1.062;2022-08-11T07:54:34;5.03;;;1.92;;
65684;SDS011;52405;50.844;-1.062;2022-08-11T07:57:02;5.25;;;1.65;;
65684;SDS011;52405;50.844;-1.062;2022-08-11T07:59:50;7.18;;;1.75;;
65684;SDS011;52405;50.844;-1.062;2022-08-11T08:05:19;4.30;;;1.95;;
65684;SDS011;52405;50.844;-1.062;2022-08-11T08:10:49;4.60;;;1.70;;
65684;SDS011;52405;50.844;-1.062;2022-08-11T08:13:35;5.25;;;1.80;;
65684;SDS011;52405;50.844;-1.062;2022-08-11T08:16:20;4.43;;;1.77;;
65684;SDS011;52405;50.844;-1.062;2022-08-11T08:21:30;4.90;;;2.10;;
65684;SDS011;52405;50.844;-1.062;2022-08-11T08:23:56;5.20;;;1.75;;
65684;SDS011;52405;50.844;-1.062;2022-08-11T08:26:22;3.30;;;1.70;;
65684;SDS011;52405;50.844;-1.062;2022-08-11T08:29:07;2.95;;;1.40;;
65684;SDS011;52405;50.844;-1.062;2022-08-11T08:31:52;4.50;;;1.80;;
65684;SDS011;52405;50.844;-1.062;2022-08-11T08:34:20;10.82;;;2.65;;
65684;SDS011;52405;50.844;-1.062;2022-08-11T08:36:48;4.72;;;1.77;;
65684;SDS011;52405;50.844;-1.062;2022-08-11T08:39:21;3.83;;;1.58;;
65684;SDS011;52405;50.844;-1.062;2022-08-11T08:41:55;4.82;;;1.40;;
65684;SDS011;52405;50.844;-1.062;2022-08-11T08:44:22;3.05;;;1.63;;
65684;SDS011;52405;50.844;-1.062;2022-08-11T08:46:51;7.20;;;1.85;;
65684;SDS011;52405;50.844;-1.062;2022-08-11T08:49:25;3.10;;;1.55;;
65684;SDS011;52405;50.844;-1.062;2022-08-11T08:51:57;5.47;;;1.40;;
65684;SDS011;52405;50.844;-1.062;2022-08-11T08:54:37;2.53;;;1.58;;
65684;SDS011;52405;50.844;-1.062;2022-08-11T08:57:06;5.38;;;1.45;;
65684;SDS011;52405;50.844;-1.062;2022-08-11T08:59:35;6.82;;;1.48;;
65684;SDS011;52405;50.844;-1.062;2022-08-11T09:02:04;5.72;;;1.85;;
65684;SDS011;52405;50.844;-1.062;2022-08-11T09:04:31;3.42;;;1.35;;
65684;SDS011;52405;50.844;-1.062;2022-08-11T09:07:05;4.10;;;1.52;;
65684;SDS011;52405;50.844;-1.062;2022-08-11T09:09:33;6.72;;;1.50;;
65684;SDS011;52405;50.844;-1.062;2022-08-11T09:12:00;5.90;;;1.58;;
65684;SDS011;52405;50.844;-1.062;2022-08-11T09:14:39;5.13;;;1.60;;
65684;SDS011;52405;50.844;-1.062;2022-08-11T09:17:36;6.10;;;1.70;;
65684;SDS011;52405;50.844;-1.062;2022-08-11T09:20:23;2.70;;;1.55;;
65684;SDS011;52405;50.844;-1.062;2022-08-11T09:22:53;3.10;;;1.40;;
65684;SDS011;52405;50.844;-1.062;2022-08-11T09:25:41;9.35;;;1.65;;
65684;SDS011;52405;50.844;-1.062;2022-08-11T09:30:53;4.40;;;1.85;;
65684;SDS011;52405;50.844;-1.062;2022-08-11T09:33:21;9.50;;;2.05;;
65684;SDS011;52405;50.844;-1.062;2022-08-11T09:35:48;3.55;;;1.52;;
65684;SDS011;52405;50.844;-1.062;2022-08-11T09:38:16;4.03;;;1.88;;
65684;SDS011;52405;50.844;-1.062;2022-08-11T09:41:04;7.43;;;1.83;;
65684;SDS011;52405;50.844;-1.062;2022-08-11T09:43:32;4.50;;;1.67;;
65684;SDS011;52405;50.844;-1.062;2022-08-11T09:46:22;4.68;;;1.77;;
65684;SDS011;52405;50.844;-1.062;2022-08-11T09:48:52;4.60;;;1.55;;
65684;SDS011;52405;50.844;-1.062;2022-08-11T09:51:23;6.43;;;3.15;;
65684;SDS011;52405;50.844;-1.062;2022-08-11T09:53:49;2.28;;;1.50;;
65684;SDS011;52405;50.844;-1.062;2022-08-11T09:56:16;4.10;;;1.90;;
65684;SDS011;52405;50.844;-1.062;2022-08-11T09:59:02;2.03;;;1.50;;
65684;SDS011;52405;50.844;-1.062;2022-08-11T10:01:42;8.95;;;1.73;;
65684;SDS011;52405;50.844;-1.062;2022-08-11T10:04:16;3.67;;;1.75;;
65684;SDS011;52405;50.844;-1.062;2022-08-11T10:06:48;5.80;;;1.63;;
65684;SDS011;52405;50.844;-1.062;2022-08-11T10:09:37;2.20;;;2.00;;
65684;SDS011;52405;50.844;-1.062;2022-08-11T10:12:24;10.30;;;1.77;;
65684;SDS011;52405;50.844;-1.062;2022-08-11T10:14:53;3.47;;;1.67;;
65684;SDS011;52405;50.844;-1.062;2022-08-11T10:17:42;7.90;;;2.20;;
65684;SDS011;52405;50.844;-1.062;2022-08-11T10:20:31;8.75;;;1.92;;
65684;SDS011;52405;50.844;-1.062;2022-08-11T10:22:59;4.35;;;2.03;;
65684;SDS011;52405;50.844;-1.062;2022-08-11T10:25:44;7.57;;;2.30;;
65684;SDS011;52405;50.844;-1.062;2022-08-11T10:28:29;7.70;;;2.72;;
65684;SDS011;52405;50.844;-1.062;2022-08-11T10:30:54;4.28;;;1.85;;
65684;SDS011;52405;50.844;-1.062;2022-08-11T10:33:40;4.82;;;1.70;;
65684;SDS011;52405;50.844;-1.062;2022-08-11T10:36:30;5.07;;;2.45;;
65684;SDS011;52405;50.844;-1.062;2022-08-11T10:39:12;7.78;;;2.55;;
65684;SDS011;52405;50.844;-1.062;2022-08-11T10:41:42;2.83;;;1.83;;
65684;SDS011;52405;50.844;-1.062;2022-08-11T10:44:28;5.28;;;2.40;;
65684;SDS011;52405;50.844;-1.062;2022-08-11T10:46:58;5.40;;;2.30;;
65684;SDS011;52405;50.844;-1.062;2022-08-11T10:49:43;5.15;;;2.63;;
65684;SDS011;52405;50.844;-1.062;2022-08-11T10:52:08;10.40;;;2.95;;
65684;SDS011;52405;50.844;-1.062;2022-08-11T10:54:53;11.45;;;2.78;;
65684;SDS011;52405;50.844;-1.062;2022-08-11T10:57:37;6.95;;;2.53;;
65684;SDS011;52405;50.844;-1.062;2022-08-11T11:00:22;3.85;;;2.75;;
65684;SDS011;52405;50.844;-1.062;2022-08-11T11:02:48;4.22;;;2.10;;
65684;SDS011;52405;50.844;-1.062;2022-08-11T11:05:23;5.03;;;2.65;;
65684;SDS011;52405;50.844;-1.062;2022-08-11T11:07:55;8.43;;;2.85;;
65684;SDS011;52405;50.844;-1.062;2022-08-11T11:10:27;6.75;;;2.47;;
65684;SDS011;52405;50.844;-1.062;2022-08-11T11:12:55;6.65;;;2.60;;
65684;SDS011;52405;50.844;-1.062;2022-08-11T11:15:41;9.85;;;2.45;;
65684;SDS011;52405;50.844;-1.062;2022-08-11T11:18:30;6.90;;;2.33;;
65684;SDS011;52405;50.844;-1.062;2022-08-11T11:21:07;6.28;;;2.20;;
65684;SDS011;52405;50.844;-1.062;2022-08-11T11:23:48;7.00;;;2.38;;
65684;SDS011;52405;50.844;-1.062;2022-08-11T11:26:46;4.38;;;2.10;;
65684;SDS011;52405;50.844;-1.062;2022-08-11T11:29:53;6.45;;;2.25;;
65684;SDS011;52405;50.844;-1.062;2022-08-11T11:38:25;5.28;;;1.90;;
65684;SDS011;52405;50.844;-1.062;2022-08-11T11:40:52;3.55;;;2.35;;
65684;SDS011;52405;50.844;-1.062;2022-08-11T11:43:36;8.10;;;2.05;;
65684;SDS011;52405;50.844;-1.062;2022-08-11T11:46:03;7.13;;;2.67;;
65684;SDS011;52405;50.844;-1.062;2022-08-11T11:48:30;8.05;;;3.15;;
65684;SDS011;52405;50.844;-1.062;2022-08-11T11:50:56;8.73;;;2.90;;
65684;SDS011;52405;50.844;-1.062;2022-08-11T11:53:23;4.00;;;2.63;;
65684;SDS011;52405;50.844;-1.062;2022-08-11T11:55:49;5.95;;;1.67;;
65684;SDS011;52405;50.844;-1.062;2022-08-11T11:58:15;6.70;;;2.67;;
65684;SDS011;52405;50.844;-1.062;2022-08-11T12:01:00;6.68;;;2.20;;
65684;SDS011;52405;50.844;-1.062;2022-08-11T12:03:44;3.35;;;1.70;;
65684;SDS011;52405;50.844;-1.062;2022-08-11T12:06:13;9.75;;;2.00;;
65684;SDS011;52405;50.844;-1.062;2022-08-11T12:08:41;2.47;;;1.80;;
65684;SDS011;52405;50.844;-1.062;2022-08-11T12:11:10;5.85;;;2.15;;
65684;SDS011;52405;50.844;-1.062;2022-08-11T12:13:57;6.03;;;2.00;;
65684;SDS011;52405;50.844;-1.062;2022-08-11T12:16:26;5.38;;;1.92;;
65684;SDS011;52405;50.844;-1.062;2022-08-11T12:18:54;4.22;;;1.95;;
65684;SDS011;52405;50.844;-1.062;2022-08-11T12:21:23;3.38;;;1.77;;
65684;SDS011;52405;50.844;-1.062;2022-08-11T12:23:50;5.57;;;1.88;;
65684;SDS011;52405;50.844;-1.062;2022-08-11T12:26:35;6.38;;;1.80;;
65684;SDS011;52405;50.844;-1.062;2022-08-11T12:29:21;4.10;;;2.05;;
65684;SDS011;52405;50.844;-1.062;2022-08-11T12:31:53;2.58;;;1.88;;
65684;SDS011;52405;50.844;-1.062;2022-08-11T12:34:20;9.40;;;2.10;;
65684;SDS011;52405;50.844;-1.062;2022-08-11T12:37:06;3.90;;;2.30;;
65684;SDS011;52405;50.844;-1.062;2022-08-11T12:39:37;6.22;;;2.30;;
65684;SDS011;52405;50.844;-1.062;2022-08-11T12:42:24;5.80;;;2.03;;
65684;SDS011;52405;50.844;-1.062;2022-08-11T12:45:10;3.67;;;2.28;;
65684;SDS011;52405;50.844;-1.062;2022-08-11T12:50:54;11.75;;;1.95;;
65684;SDS011;52405;50.844;-1.062;2022-08-11T12:53:42;5.55;;;2.38;;
65684;SDS011;52405;50.844;-1.062;2022-08-11T12:56:23;4.50;;;2.05;;
65684;SDS011;52405;50.844;-1.062;2022-08-11T12:59:15;6.07;;;1.95;;
65684;SDS011;52405;50.844;-1.062;2022-08-11T13:02:00;4.53;;;2.13;;
65684;SDS011;52405;50.844;-1.062;2022-08-11T13:04:46;3.40;;;1.90;;
65684;SDS011;52405;50.844;-1.062;2022-08-11T13:07:27;6.07;;;2.35;;
65684;SDS011;52405;50.844;-1.062;2022-08-11T13:09:57;6.00;;;2.00;;
65684;SDS011;52405;50.844;-1.062;2022-08-11T13:12:25;7.00;;;2.95;;
65684;SDS011;52405;50.844;-1.062;2022-08-11T13:15:12;4.40;;;2.05;;
65684;SDS011;52405;50.844;-1.062;2022-08-11T13:17:49;4.40;;;2.35;;
65684;SDS011;52405;50.844;-1.062;2022-08-11T13:20:20;8.38;;;2.13;;
65684;SDS011;52405;50.844;-1.062;2022-08-11T13:22:49;6.32;;;2.50;;
65684;SDS011;52405;50.844;-1.062;2022-08-11T13:25:17;8.90;;;2.30;;
65684;SDS011;52405;50.844;-1.062;2022-08-11T13:27:45;6.70;;;2.40;;
65684;SDS011;52405;50.844;-1.062;2022-08-11T13:30:12;6.22;;;2.60;;
65684;SDS011;52405;50.844;-1.062;2022-08-11T13:32:58;7.55;;;1.90;;
65684;SDS011;52405;50.844;-1.062;2022-08-11T13:35:25;4.38;;;1.92;;
65684;SDS011;52405;50.844;-1.062;2022-08-11T13:37:53;4.88;;;2.35;;
65684;SDS011;52405;50.844;-1.062;2022-08-11T13:40:20;7.05;;;2.28;;
65684;SDS011;52405;50.844;-1.062;2022-08-11T13:42:47;5.55;;;2.50;;
65684;SDS011;52405;50.844;-1.062;2022-08-11T13:45:14;5.93;;;2.25;;
65684;SDS011;52405;50.844;-1.062;2022-08-11T13:47:40;7.97;;;2.60;;
65684;SDS011;52405;50.844;-1.062;2022-08-11T13:50:07;4.60;;;2.40;;
65684;SDS011;52405;50.844;-1.062;2022-08-11T13:52:36;6.75;;;2.22;;
65684;SDS011;52405;50.844;-1.062;2022-08-11T13:55:04;3.30;;;1.85;;
65684;SDS011;52405;50.844;-1.062;2022-08-11T13:57:32;4.68;;;1.98;;
65684;SDS011;52405;50.844;-1.062;2022-08-11T13:59:59;8.40;;;2.63;;
65684;SDS011;52405;50.844;-1.062;2022-08-11T14:02:35;5.68;;;2.83;;
65684;SDS011;52405;50.844;-1.062;2022-08-11T14:05:07;8.45;;;2.72;;
65684;SDS011;52405;50.844;-1.062;2022-08-11T14:07:38;6.70;;;2.25;;
65684;SDS011;52405;50.844;-1.062;2022-08-11T14:10:06;7.18;;;2.60;;
65684;SDS011;52405;50.844;-1.062;2022-08-11T14:12:36;7.30;;;2.78;;
65684;SDS011;52405;50.844;-1.062;2022-08-11T14:15:23;5.88;;;2.58;;
65684;SDS011;52405;50.844;-1.062;2022-08-11T14:17:51;10.57;;;2.63;;
65684;SDS011;52405;50.844;-1.062;2022-08-11T14:20:30;6.20;;;2.20;;
65684;SDS011;52405;50.844;-1.062;2022-08-11T14:23:17;7.32;;;2.95;;
65684;SDS011;52405;50.844;-1.062;2022-08-11T14:25:50;4.70;;;2.08;;
65684;SDS011;52405;50.844;-1.062;2022-08-11T14:28:34;4.15;;;1.92;;
65684;SDS011;52405;50.844;-1.062;2022-08-11T14:31:02;7.78;;;2.40;;
65684;SDS011;52405;50.844;-1.062;2022-08-11T14:33:32;4.03;;;2.50;;
65684;SDS011;52405;50.844;-1.062;2022-08-11T14:36:03;9.60;;;2.67;;
65684;SDS011;52405;50.844;-1.062;2022-08-11T14:38:31;5.95;;;2.33;;
65684;SDS011;52405;50.844;-1.062;2022-08-11T14:40:58;5.57;;;2.00;;
65684;SDS011;52405;50.844;-1.062;2022-08-11T14:43:44;3.97;;;2.28;;
65684;SDS011;52405;50.844;-1.062;2022-08-11T14:46:28;5.50;;;2.07;;
65684;SDS011;52405;50.844;-1.062;2022-08-11T14:49:15;5.18;;;2.10;;
65684;SDS011;52405;50.844;-1.062;2022-08-11T14:51:41;4.88;;;1.90;;
65684;SDS011;52405;50.844;-1.062;2022-08-11T14:54:07;4.18;;;2.20;;
65684;SDS011;52405;50.844;-1.062;2022-08-11T14:56:53;10.02;;;2.50;;
65684;SDS011;52405;50.844;-1.062;2022-08-11T14:59:20;5.28;;;2.63;;
65684;SDS011;52405;50.844;-1.062;2022-08-11T15:01:47;5.30;;;2.13;;
65684;SDS011;52405;50.844;-1.062;2022-08-11T15:04:31;7.53;;;2.10;;
65684;SDS011;52405;50.844;-1.062;2022-08-11T15:06:57;2.85;;;1.92;;
65684;SDS011;52405;50.844;-1.062;2022-08-11T15:09:23;2.63;;;1.70;;
65684;SDS011;52405;50.844;-1.062;2022-08-11T15:11:49;3.63;;;1.90;;
65684;SDS011;52405;50.844;-1.062;2022-08-11T15:14:34;9.77;;;1.87;;
65684;SDS011;52405;50.844;-1.062;2022-08-11T15:17:18;2.72;;;1.73;;
65684;SDS011;52405;50.844;-1.062;2022-08-11T15:19:46;2.83;;;1.80;;
65684;SDS011;52405;50.844;-1.062;2022-08-11T15:22:33;3.55;;;1.70;;
65684;SDS011;52405;50.844;-1.062;2022-08-11T15:25:18;11.63;;;2.47;;
65684;SDS011;52405;50.844;-1.062;2022-08-11T15:27:45;7.47;;;2.63;;
65684;SDS011;52405;50.844;-1.062;2022-08-11T15:30:31;5.25;;;2.10;;
65684;SDS011;52405;50.844;-1.062;2022-08-11T15:33:17;5.38;;;2.35;;
65684;SDS011;52405;50.844;-1.062;2022-08-11T15:36:04;4.82;;;2.08;;
65684;SDS011;52405;50.844;-1.062;2022-08-11T15:38:51;6.28;;;2.05;;
65684;SDS011;52405;50.844;-1.062;2022-08-11T15:41:20;9.90;;;1.88;;
65684;SDS011;52405;50.844;-1.062;2022-08-11T15:44:11;2.95;;;1.80;;
65684;SDS011;52405;50.844;-1.062;2022-08-11T15:46:58;5.28;;;2.00;;
65684;SDS011;52405;50.844;-1.062;2022-08-11T15:49:28;10.80;;;2.13;;
65684;SDS011;52405;50.844;-1.062;2022-08-11T15:51:59;7.10;;;1.92;;
65684;SDS011;52405;50.844;-1.062;2022-08-11T15:54:30;3.08;;;2.00;;
65684;SDS011;52405;50.844;-1.062;2022-08-11T15:56:58;6.78;;;2.00;;
65684;SDS011;52405;50.844;-1.062;2022-08-11T15:59:33;3.75;;;1.50;;
65684;SDS011;52405;50.844;-1.062;2022-08-11T16:02:20;4.10;;;1.60;;
65684;SDS011;52405;50.844;-1.062;2022-08-11T16:05:01;4.10;;;1.88;;
65684;SDS011;52405;50.844;-1.062;2022-08-11T16:07:31;6.20;;;1.70;;
65684;SDS011;52405;50.844;-1.062;2022-08-11T16:10:12;3.63;;;1.90;;
65684;SDS011;52405;50.844;-1.062;2022-08-11T16:13:00;2.38;;;1.95;;
65684;SDS011;52405;50.844;-1.062;2022-08-11T16:15:33;3.30;;;2.10;;
65684;SDS011;52405;50.844;-1.062;2022-08-11T16:18:21;6.55;;;2.22;;
65684;SDS011;52405;50.844;-1.062;2022-08-11T16:21:04;4.55;;;2.10;;
65684;SDS011;52405;50.844;-1.062;2022-08-11T16:23:34;3.80;;;1.95;;
65684;SDS011;52405;50.844;-1.062;2022-08-11T16:26:01;4.72;;;2.03;;
65684;SDS011;52405;50.844;-1.062;2022-08-11T16:28:29;7.07;;;2.00;;
65684;SDS011;52405;50.844;-1.062;2022-08-11T16:30:58;4.15;;;2.20;;
65684;SDS011;52405;50.844;-1.062;2022-08-11T16:33:25;2.85;;;1.90;;
65684;SDS011;52405;50.844;-1.062;2022-08-11T16:35:51;3.58;;;2.13;;
65684;SDS011;52405;50.844;-1.062;2022-08-11T16:38:37;3.55;;;1.80;;
65684;SDS011;52405;50.844;-1.062;2022-08-11T16:41:09;2.42;;;1.70;;
65684;SDS011;52405;50.844;-1.062;2022-08-11T16:43:41;4.20;;;1.85;;
65684;SDS011;52405;50.844;-1.062;2022-08-11T16:46:28;5.75;;;1.85;;
65684;SDS011;52405;50.844;-1.062;2022-08-11T16:49:18;9.27;;;1.90;;
65684;SDS011;52405;50.844;-1.062;2022-08-11T16:51:46;4.50;;;2.33;;
65684;SDS011;52405;50.844;-1.062;2022-08-11T16:54:12;6.05;;;2.58;;
65684;SDS011;52405;50.844;-1.062;2022-08-11T16:56:53;7.72;;;2.13;;
65684;SDS011;52405;50.844;-1.062;2022-08-11T16:59:28;6.45;;;2.03;;
65684;SDS011;52405;50.844;-1.062;2022-08-11T17:02:01;5.35;;;2.17;;
65684;SDS011;52405;50.844;-1.062;2022-08-11T17:07:21;3.30;;;2.13;;
65684;SDS011;52405;50.844;-1.062;2022-08-11T17:10:09;4.50;;;2.05;;
65684;SDS011;52405;50.844;-1.062;2022-08-11T17:13:11;2.67;;;2.00;;
65684;SDS011;52405;50.844;-1.062;2022-08-11T17:15:41;5.90;;;1.95;;
65684;SDS011;52405;50.844;-1.062;2022-08-11T17:18:36;5.57;;;2.33;;
65684;SDS011;52405;50.844;-1.062;2022-08-11T17:21:14;2.08;;;1.55;;
65684;SDS011;52405;50.844;-1.062;2022-08-11T17:23:58;5.82;;;1.90;;
65684;SDS011;52405;50.844;-1.062;2022-08-11T17:26:27;8.23;;;1.88;;
65684;SDS011;52405;50.844;-1.062;2022-08-11T17:29:18;7.38;;;2.08;;
65684;SDS011;52405;50.844;-1.062;2022-08-11T17:31:47;3.35;;;2.10;;
65684;SDS011;52405;50.844;-1.062;2022-08-11T17:34:33;6.57;;;2.08;;
65684;SDS011;52405;50.844;-1.062;2022-08-11T17:37:18;10.25;;;2.35;;
65684;SDS011;52405;50.844;-1.062;2022-08-11T17:39:45;3.33;;;2.05;;
65684;SDS011;52405;50.844;-1.062;2022-08-11T17:42:12;4.88;;;1.98;;
65684;SDS011;52405;50.844;-1.062;2022-08-11T17:44:58;3.88;;;1.80;;
65684;SDS011;52405;50.844;-1.062;2022-08-11T17:47:44;4.70;;;1.92;;
65684;SDS011;52405;50.844;-1.062;2022-08-11T17:50:29;5.72;;;2.20;;
65684;SDS011;52405;50.844;-1.062;2022-08-11T17:52:56;5.68;;;2.40;;
65684;SDS011;52405;50.844;-1.062;2022-08-11T17:55:42;3.03;;;1.95;;
65684;SDS011;52405;50.844;-1.062;2022-08-11T17:58:28;7.65;;;2.50;;
65684;SDS011;52405;50.844;-1.062;2022-08-11T18:03:40;3.60;;;1.85;;
65684;SDS011;52405;50.844;-1.062;2022-08-11T18:06:08;5.93;;;2.42;;
65684;SDS011;52405;50.844;-1.062;2022-08-11T18:08:40;6.15;;;1.73;;
65684;SDS011;52405;50.844;-1.062;2022-08-11T18:11:27;6.70;;;1.70;;
65684;SDS011;52405;50.844;-1.062;2022-08-11T18:14:14;5.50;;;2.00;;
65684;SDS011;52405;50.844;-1.062;2022-08-11T18:17:00;3.20;;;2.40;;
65684;SDS011;52405;50.844;-1.062;2022-08-11T18:19:44;5.05;;;1.90;;
65684;SDS011;52405;50.844;-1.062;2022-08-11T18:22:29;11.05;;;2.00;;
65684;SDS011;52405;50.844;-1.062;2022-08-11T18:25:19;7.55;;;2.03;;
65684;SDS011;52405;50.844;-1.062;2022-08-11T18:28:05;5.25;;;2.05;;
65684;SDS011;52405;50.844;-1.062;2022-08-11T18:30:52;4.28;;;1.98;;
65684;SDS011;52405;50.844;-1.062;2022-08-11T18:33:44;9.73;;;2.40;;
65684;SDS011;52405;50.844;-1.062;2022-08-11T18:36:41;7.53;;;2.05;;
65684;SDS011;52405;50.844;-1.062;2022-08-11T18:39:34;4.63;;;1.92;;
65684;SDS011;52405;50.844;-1.062;2022-08-11T18:42:25;9.43;;;2.17;;
65684;SDS011;52405;50.844;-1.062;2022-08-11T18:45:13;3.22;;;2.20;;
65684;SDS011;52405;50.844;-1.062;2022-08-11T18:48:02;7.20;;;2.10;;
65684;SDS011;52405;50.844;-1.062;2022-08-11T18:50:50;5.78;;;2.65;;
65684;SDS011;52405;50.844;-1.062;2022-08-11T18:53:45;6.40;;;2.53;;
65684;SDS011;52405;50.844;-1.062;2022-08-11T18:56:50;6.88;;;2.88;;
65684;SDS011;52405;50.844;-1.062;2022-08-11T18:59:37;5.95;;;2.33;;
65684;SDS011;52405;50.844;-1.062;2022-08-11T19:02:23;5.43;;;2.00;;
65684;SDS011;52405;50.844;-1.062;2022-08-11T19:05:09;4.10;;;1.95;;
65684;SDS011;52405;50.844;-1.062;2022-08-11T19:07:56;5.50;;;2.75;;
65684;SDS011;52405;50.844;-1.062;2022-08-11T19:10:42;7.30;;;2.55;;
65684;SDS011;52405;50.844;-1.062;2022-08-11T19:13:28;4.50;;;1.90;;
65684;SDS011;52405;50.844;-1.062;2022-08-11T19:16:14;4.63;;;2.22;;
65684;SDS011;52405;50.844;-1.062;2022-08-11T19:19:00;8.02;;;3.13;;
65684;SDS011;52405;50.844;-1.062;2022-08-11T19:21:44;9.10;;;3.03;;